createdAt,value
2017-05-16T00:00:10.597Z,16.81
2017-05-16T00:01:19.554Z,16.78
2017-05-16T00:02:29.007Z,16.82
2017-05-16T00:03:38.650Z,16.75
2017-05-16T00:04:48.166Z,16.75
2017-05-16T00:05:57.448Z,16.71
2017-05-16T00:07:06.844Z,16.79
2017-05-16T00:08:17.401Z,16.76
2017-05-16T00:09:27.045Z,16.71
2017-05-16T00:10:37.558Z,16.68
2017-05-16T00:11:47.186Z,16.68
2017-05-16T00:12:57.691Z,16.71
2017-05-16T00:14:07.945Z,16.68
2017-05-16T00:15:17.789Z,16.7
2017-05-16T00:16:27.765Z,16.67
2017-05-16T00:17:36.979Z,16.52
2017-05-16T00:18:46.101Z,16.57
2017-05-16T00:19:56.714Z,16.5
2017-05-16T00:21:06.917Z,16.52
2017-05-16T00:22:16.103Z,16.53
2017-05-16T00:23:25.696Z,16.52
2017-05-16T00:24:35.681Z,16.56
2017-05-16T00:25:45.343Z,16.52
2017-05-16T00:26:54.766Z,16.58
2017-05-16T00:28:04.144Z,16.57
2017-05-16T00:29:13.344Z,16.48
2017-05-16T00:30:22.685Z,16.48
2017-05-16T00:31:32.449Z,16.46
2017-05-16T00:32:42.188Z,16.43
2017-05-16T00:33:51.666Z,16.45
2017-05-16T00:35:00.964Z,16.45
2017-05-16T00:36:10.909Z,16.43
2017-05-16T00:37:20.452Z,16.45
2017-05-16T00:38:29.949Z,16.39
2017-05-16T00:39:38.971Z,16.35
2017-05-16T00:40:48.333Z,16.41
2017-05-16T00:41:57.757Z,16.31
2017-05-16T00:43:08.325Z,16.33
2017-05-16T00:44:17.514Z,16.35
2017-05-16T00:45:26.853Z,16.35
2017-05-16T00:46:37.434Z,16.31
2017-05-16T00:47:46.566Z,16.35
2017-05-16T00:48:55.825Z,16.35
2017-05-16T00:50:04.784Z,16.34
2017-05-16T00:51:13.829Z,16.39
2017-05-16T00:52:22.791Z,16.31
2017-05-16T00:53:33.235Z,16.34
2017-05-16T00:54:50.182Z,16.38
2017-05-16T00:56:01.187Z,16.33
2017-05-16T00:57:13.911Z,16.3
2017-05-16T00:58:25.680Z,16.28
2017-05-16T00:59:34.683Z,16.27
2017-05-16T01:00:44.159Z,16.24
2017-05-16T01:01:54.314Z,16.27
2017-05-16T01:03:03.970Z,16.21
2017-05-16T01:04:13.891Z,16.15
2017-05-16T01:05:24.650Z,16.17
2017-05-16T01:06:35.794Z,16.12
2017-05-16T01:07:46.316Z,16.17
2017-05-16T01:08:57.314Z,16.21
2017-05-16T01:10:08.040Z,16.14
2017-05-16T01:11:18.187Z,16.02
2017-05-16T01:12:27.634Z,16.15
2017-05-16T01:13:37.032Z,16.07
2017-05-16T01:14:45.995Z,16.15
2017-05-16T01:15:54.959Z,16.12
2017-05-16T01:17:04.245Z,16.08
2017-05-16T01:18:29.374Z,16.11
2017-05-16T01:19:38.719Z,16.01
2017-05-16T01:20:48.132Z,16.02
2017-05-16T01:21:58.102Z,16.04
2017-05-16T01:23:08.841Z,16.04
2017-05-16T01:24:19.151Z,16.01
2017-05-16T01:25:29.611Z,15.87
2017-05-16T01:26:38.744Z,15.87
2017-05-16T01:27:48.291Z,15.9
2017-05-16T01:28:58.113Z,15.89
2017-05-16T01:30:07.661Z,15.96
2017-05-16T01:31:16.948Z,15.94
2017-05-16T01:32:26.650Z,16
2017-05-16T01:33:36.553Z,15.92
2017-05-16T01:34:48.296Z,15.86
2017-05-16T01:35:59.238Z,15.89
2017-05-16T01:37:09.976Z,15.84
2017-05-16T01:38:20.403Z,15.9
2017-05-16T01:39:31.765Z,15.9
2017-05-16T01:40:41.689Z,15.89
2017-05-16T01:41:50.720Z,15.96
2017-05-16T01:43:00.267Z,15.86
2017-05-16T01:44:09.841Z,15.93
2017-05-16T01:45:19.480Z,15.92
2017-05-16T01:46:29.192Z,15.87
2017-05-16T01:47:39.316Z,15.84
2017-05-16T01:48:49.558Z,15.76
2017-05-16T01:49:59.398Z,15.82
2017-05-16T01:51:08.358Z,15.82
2017-05-16T01:52:17.576Z,15.72
2017-05-16T01:53:27.738Z,15.69
2017-05-16T01:54:36.699Z,15.71
2017-05-16T01:55:45.865Z,15.75
2017-05-16T01:56:54.824Z,15.75
2017-05-16T01:58:04.046Z,15.74
2017-05-16T01:59:13.005Z,15.72
2017-05-16T02:00:21.968Z,15.78
2017-05-16T02:01:30.924Z,15.83
2017-05-16T02:02:40.463Z,15.75
2017-05-16T02:03:49.673Z,15.75
2017-05-16T02:04:58.639Z,15.8
2017-05-16T02:06:07.603Z,15.82
2017-05-16T02:07:16.562Z,15.8
2017-05-16T02:08:25.608Z,15.82
2017-05-16T02:09:34.814Z,15.84
2017-05-16T02:10:43.856Z,15.76
2017-05-16T02:11:53.144Z,15.8
2017-05-16T02:13:02.108Z,15.87
2017-05-16T02:14:11.070Z,15.8
2017-05-16T02:15:20.282Z,15.86
2017-05-16T02:16:29.242Z,15.8
2017-05-16T02:17:38.216Z,15.84
2017-05-16T02:18:47.180Z,15.75
2017-05-16T02:19:56.141Z,15.84
2017-05-16T02:21:05.353Z,15.82
2017-05-16T02:22:14.495Z,15.78
2017-05-16T02:23:23.455Z,15.86
2017-05-16T02:24:32.506Z,15.78
2017-05-16T02:25:41.465Z,15.83
2017-05-16T02:26:51.249Z,15.84
2017-05-16T02:28:00.212Z,15.86
2017-05-16T02:29:09.181Z,15.82
2017-05-16T02:30:18.516Z,15.78
2017-05-16T02:31:27.486Z,15.71
2017-05-16T02:32:36.694Z,15.8
2017-05-16T02:33:45.741Z,15.83
2017-05-16T02:34:54.704Z,15.8
2017-05-16T02:36:03.764Z,15.78
2017-05-16T02:37:12.728Z,15.75
2017-05-16T02:38:23.137Z,15.75
2017-05-16T02:39:32.423Z,15.75
2017-05-16T02:40:41.391Z,15.82
2017-05-16T02:41:50.353Z,15.74
2017-05-16T02:42:59.322Z,15.83
2017-05-16T02:44:08.539Z,15.75
2017-05-16T02:45:17.500Z,15.82
2017-05-16T02:46:26.875Z,15.78
2017-05-16T02:47:35.843Z,15.74
2017-05-16T02:48:45.035Z,15.86
2017-05-16T02:49:54.245Z,15.84
2017-05-16T02:51:03.212Z,15.86
2017-05-16T02:52:12.254Z,15.87
2017-05-16T02:53:21.225Z,15.76
2017-05-16T02:54:30.183Z,15.83
2017-05-16T02:55:39.393Z,15.75
2017-05-16T02:56:48.360Z,15.82
2017-05-16T02:57:57.322Z,15.89
2017-05-16T02:59:06.367Z,15.86
2017-05-16T03:00:15.327Z,15.83
2017-05-16T03:01:24.538Z,15.87
2017-05-16T03:02:35.001Z,15.93
2017-05-16T03:03:43.967Z,15.9
2017-05-16T03:04:53.130Z,15.9
2017-05-16T03:06:02.421Z,15.89
2017-05-16T03:07:11.633Z,15.9
2017-05-16T03:08:20.597Z,15.96
2017-05-16T03:09:29.844Z,15.83
2017-05-16T03:10:38.808Z,15.86
2017-05-16T03:11:47.762Z,15.92
2017-05-16T03:12:57.024Z,15.86
2017-05-16T03:14:05.988Z,15.9
2017-05-16T03:15:14.944Z,15.93
2017-05-16T03:16:23.902Z,15.9
2017-05-16T03:17:32.953Z,15.92
2017-05-16T03:18:42.165Z,15.94
2017-05-16T03:19:51.128Z,15.94
2017-05-16T03:21:00.092Z,15.94
2017-05-16T03:22:09.141Z,15.93
2017-05-16T03:23:18.100Z,16.05
2017-05-16T03:24:27.312Z,16.05
2017-05-16T03:25:36.275Z,16.02
2017-05-16T03:26:45.243Z,16.05
2017-05-16T03:27:54.218Z,15.97
2017-05-16T03:29:03.263Z,16.02
2017-05-16T03:30:12.530Z,16.01
2017-05-16T03:31:21.486Z,16.04
2017-05-16T03:32:30.453Z,16.01
2017-05-16T03:33:39.421Z,16.05
2017-05-16T03:34:48.382Z,16.01
2017-05-16T03:35:57.644Z,16.01
2017-05-16T03:37:06.605Z,16.08
2017-05-16T03:38:15.566Z,16.05
2017-05-16T03:39:24.540Z,16.07
2017-05-16T03:40:33.514Z,16.11
2017-05-16T03:41:42.774Z,16
2017-05-16T03:42:51.730Z,16.02
2017-05-16T03:44:00.696Z,16.02
2017-05-16T03:45:09.652Z,16.02
2017-05-16T03:46:19.243Z,15.97
2017-05-16T03:47:43.067Z,16.01
2017-05-16T03:48:52.033Z,16
2017-05-16T03:50:01.000Z,16.02
2017-05-16T03:51:09.958Z,15.94
2017-05-16T03:52:18.925Z,16.01
2017-05-16T03:53:28.209Z,15.9
2017-05-16T03:54:37.173Z,15.97
2017-05-16T03:55:46.134Z,15.84
2017-05-16T03:56:55.188Z,15.86
2017-05-16T03:58:04.145Z,15.92
2017-05-16T03:59:13.408Z,15.93
2017-05-16T04:00:22.370Z,15.87
2017-05-16T04:01:31.508Z,15.93
2017-05-16T04:02:40.475Z,15.9
2017-05-16T04:03:49.527Z,15.93
2017-05-16T04:04:58.791Z,15.87
2017-05-16T04:06:07.750Z,15.92
2017-05-16T04:07:16.707Z,15.89
2017-05-16T04:08:25.677Z,15.92
2017-05-16T04:09:34.840Z,15.9
2017-05-16T04:10:44.221Z,15.92
2017-05-16T04:11:53.502Z,15.93
2017-05-16T04:13:02.460Z,15.93
2017-05-16T04:14:11.421Z,15.89
2017-05-16T04:15:20.384Z,15.87
2017-05-16T04:16:29.641Z,15.86
2017-05-16T04:17:38.611Z,15.86
2017-05-16T04:18:48.774Z,15.86
2017-05-16T04:19:57.735Z,15.87
2017-05-16T04:21:06.695Z,15.92
2017-05-16T04:22:16.091Z,15.89
2017-05-16T04:23:25.054Z,15.89
2017-05-16T04:24:34.020Z,15.84
2017-05-16T04:25:42.980Z,15.89
2017-05-16T04:26:51.943Z,15.93
2017-05-16T04:28:01.159Z,15.82
2017-05-16T04:29:10.137Z,15.84
2017-05-16T04:30:19.420Z,15.89
2017-05-16T04:31:28.391Z,15.94
2017-05-16T04:32:37.440Z,15.97
2017-05-16T04:33:46.716Z,16
2017-05-16T04:34:56.090Z,15.94
2017-05-16T04:36:05.053Z,15.93
2017-05-16T04:37:14.017Z,15.97
2017-05-16T04:38:22.984Z,15.97
2017-05-16T04:39:32.244Z,15.93
2017-05-16T04:40:41.197Z,15.94
2017-05-16T04:41:50.158Z,16
2017-05-16T04:42:59.129Z,16.05
2017-05-16T04:44:08.179Z,16
2017-05-16T04:45:17.713Z,16.04
2017-05-16T04:46:26.679Z,16.05
2017-05-16T04:47:35.638Z,16.07
2017-05-16T04:48:44.605Z,16.05
2017-05-16T04:49:53.656Z,16.11
2017-05-16T04:51:02.921Z,16.17
2017-05-16T04:52:11.879Z,16.2
2017-05-16T04:53:20.838Z,16.12
2017-05-16T04:54:30.125Z,16.11
2017-05-16T04:55:39.219Z,16.15
2017-05-16T04:56:48.481Z,16.21
2017-05-16T04:57:57.442Z,16.17
2017-05-16T04:59:06.406Z,16.17
2017-05-16T05:00:15.366Z,16.27
2017-05-16T05:01:24.334Z,16.28
2017-05-16T05:02:33.725Z,16.31
2017-05-16T05:03:42.789Z,16.27
2017-05-16T05:04:51.748Z,16.41
2017-05-16T05:06:00.708Z,16.41
2017-05-16T05:07:09.668Z,16.42
2017-05-16T05:08:20.179Z,16.43
2017-05-16T05:09:29.350Z,16.53
2017-05-16T05:10:38.317Z,16.56
2017-05-16T05:11:47.280Z,16.58
2017-05-16T05:12:56.235Z,16.57
2017-05-16T05:14:05.553Z,16.6
2017-05-16T05:15:14.597Z,16.58
2017-05-16T05:16:23.644Z,16.68
2017-05-16T05:17:32.596Z,16.75
2017-05-16T05:18:41.559Z,16.79
2017-05-16T05:19:50.878Z,16.73
2017-05-16T05:20:59.839Z,16.81
2017-05-16T05:22:08.848Z,16.86
2017-05-16T05:23:17.818Z,16.85
2017-05-16T05:24:26.780Z,16.97
2017-05-16T05:25:36.093Z,16.98
2017-05-16T05:26:45.055Z,17.06
2017-05-16T05:27:54.341Z,17.18
2017-05-16T05:29:03.388Z,17.15
2017-05-16T05:30:12.397Z,17.19
2017-05-16T05:31:21.606Z,17.19
2017-05-16T05:32:30.565Z,17.3
2017-05-16T05:33:39.528Z,17.3
2017-05-16T05:34:49.021Z,17.36
2017-05-16T05:35:57.990Z,17.4
2017-05-16T05:37:07.374Z,17.41
2017-05-16T05:38:16.342Z,17.51
2017-05-16T05:39:25.641Z,17.52
2017-05-16T05:40:34.606Z,17.54
2017-05-16T05:41:44.708Z,17.55
2017-05-16T05:42:53.971Z,17.7
2017-05-16T05:44:03.355Z,17.7
2017-05-16T05:45:12.319Z,17.7
2017-05-16T05:46:21.282Z,17.64
2017-05-16T05:47:30.444Z,17.7
2017-05-16T05:48:39.703Z,17.78
2017-05-16T05:49:48.675Z,17.89
2017-05-16T05:50:57.636Z,17.84
2017-05-16T05:52:06.738Z,17.86
2017-05-16T05:53:16.005Z,17.84
2017-05-16T05:54:25.468Z,17.95
2017-05-16T05:55:34.425Z,17.97
2017-05-16T05:56:43.387Z,17.92
2017-05-16T05:57:52.359Z,17.9
2017-05-16T05:59:02.601Z,17.92
2017-05-16T06:00:14.804Z,18.02
2017-05-16T06:01:26.818Z,17.97
2017-05-16T06:02:38.583Z,18.02
2017-05-16T06:03:48.042Z,18.07
2017-05-16T06:04:57.006Z,18.03
2017-05-16T06:06:06.514Z,18.07
2017-05-16T06:07:15.481Z,18.03
2017-05-16T06:08:24.621Z,18.15
2017-05-16T06:09:33.584Z,18.15
2017-05-16T06:10:42.545Z,18.11
2017-05-16T06:11:52.016Z,18.15
2017-05-16T06:13:01.558Z,18.21
2017-05-16T06:14:10.558Z,18.17
2017-05-16T06:15:19.520Z,18.2
2017-05-16T06:16:28.482Z,18.21
2017-05-16T06:17:37.740Z,18.26
2017-05-16T06:18:46.702Z,18.25
2017-05-16T06:19:55.661Z,18.39
2017-05-16T06:21:04.631Z,18.37
2017-05-16T06:22:13.691Z,18.39
2017-05-16T06:23:23.328Z,18.54
2017-05-16T06:24:33.830Z,18.47
2017-05-16T06:25:42.792Z,18.6
2017-05-16T06:26:52.174Z,18.63
2017-05-16T06:28:01.137Z,18.66
2017-05-16T06:29:10.411Z,18.76
2017-05-16T06:30:19.388Z,18.82
2017-05-16T06:31:28.586Z,18.87
2017-05-16T06:32:37.557Z,18.78
2017-05-16T06:33:46.514Z,18.81
2017-05-16T06:34:56.183Z,18.99
2017-05-16T06:36:06.706Z,18.99
2017-05-16T06:37:16.395Z,18.95
2017-05-16T06:38:26.433Z,18.99
2017-05-16T06:39:35.799Z,19.02
2017-05-16T06:40:47.327Z,19.04
2017-05-16T06:41:57.205Z,19.02
2017-05-16T06:43:06.176Z,19.06
2017-05-16T06:44:15.142Z,19.13
2017-05-16T06:45:24.103Z,19.11
2017-05-16T06:46:33.365Z,19.1
2017-05-16T06:47:42.330Z,19.14
2017-05-16T06:48:51.292Z,19.08
2017-05-16T06:50:00.255Z,19.16
2017-05-16T06:51:09.542Z,19.19
2017-05-16T06:52:18.799Z,19.19
2017-05-16T06:53:27.844Z,19.14
2017-05-16T06:54:37.015Z,19.18
2017-05-16T06:55:45.979Z,19.13
2017-05-16T06:56:54.941Z,19.22
2017-05-16T06:58:04.254Z,19.26
2017-05-16T06:59:13.223Z,19.26
2017-05-16T07:00:22.183Z,19.29
2017-05-16T07:01:31.149Z,19.28
2017-05-16T07:02:40.113Z,19.25
2017-05-16T07:03:49.910Z,19.19
2017-05-16T07:04:58.874Z,19.29
2017-05-16T07:06:07.837Z,19.31
2017-05-16T07:07:16.805Z,19.32
2017-05-16T07:08:25.774Z,19.37
2017-05-16T07:09:35.042Z,19.33
2017-05-16T07:10:44.241Z,19.37
2017-05-16T07:11:53.526Z,19.39
2017-05-16T07:13:02.499Z,19.41
2017-05-16T07:14:11.461Z,19.39
2017-05-16T07:15:20.985Z,19.47
2017-05-16T07:16:30.808Z,19.48
2017-05-16T07:17:39.784Z,19.41
2017-05-16T07:18:48.921Z,19.55
2017-05-16T07:19:59.100Z,19.48
2017-05-16T07:21:09.455Z,19.51
2017-05-16T07:22:19.511Z,19.51
2017-05-16T07:23:29.464Z,19.56
2017-05-16T07:24:39.592Z,19.58
2017-05-16T07:25:50.171Z,19.56
2017-05-16T07:27:01.222Z,19.59
2017-05-16T07:28:11.292Z,19.69
2017-05-16T07:29:21.189Z,19.68
2017-05-16T07:30:31.079Z,19.71
2017-05-16T07:31:40.374Z,19.69
2017-05-16T07:32:51.484Z,19.68
2017-05-16T07:34:01.477Z,19.65
2017-05-16T07:35:11.210Z,19.77
2017-05-16T07:36:21.157Z,19.74
2017-05-16T07:37:30.985Z,19.94
2017-05-16T07:38:40.904Z,19.86
2017-05-16T07:39:50.859Z,19.86
2017-05-16T07:41:00.730Z,19.87
2017-05-16T07:42:10.632Z,20.01
2017-05-16T07:43:21.178Z,19.99
2017-05-16T07:44:31.698Z,19.96
2017-05-16T07:45:41.753Z,20.01
2017-05-16T07:46:52.677Z,20.13
2017-05-16T07:48:03.599Z,20.14
2017-05-16T07:49:13.231Z,20.17
2017-05-16T07:50:22.930Z,20.17
2017-05-16T07:51:31.903Z,20.2
2017-05-16T07:52:41.280Z,20.23
2017-05-16T07:53:51.178Z,20.31
2017-05-16T07:55:01.440Z,20.39
2017-05-16T07:56:11.887Z,20.39
2017-05-16T07:57:21.862Z,20.39
2017-05-16T07:58:30.994Z,20.43
2017-05-16T07:59:39.995Z,20.42
2017-05-16T08:00:49.347Z,20.42
2017-05-16T08:01:58.629Z,20.43
2017-05-16T08:03:07.726Z,20.48
2017-05-16T08:04:17.081Z,20.43
2017-05-16T08:05:26.219Z,20.5
2017-05-16T08:06:35.275Z,20.5
2017-05-16T08:07:44.576Z,20.61
2017-05-16T08:08:53.632Z,20.58
2017-05-16T08:10:02.695Z,20.73
2017-05-16T08:11:13.454Z,20.76
2017-05-16T08:12:22.430Z,20.84
2017-05-16T08:13:31.719Z,20.89
2017-05-16T08:14:41.233Z,20.87
2017-05-16T08:15:50.212Z,20.77
2017-05-16T08:16:59.398Z,20.74
2017-05-16T08:18:08.450Z,20.77
2017-05-16T08:19:17.793Z,20.74
2017-05-16T08:20:27.747Z,20.69
2017-05-16T08:21:37.039Z,20.64
2017-05-16T08:22:46.093Z,20.62
2017-05-16T08:23:55.155Z,20.58
2017-05-16T08:25:04.455Z,20.66
2017-05-16T08:26:13.681Z,20.74
2017-05-16T08:27:22.734Z,20.72
2017-05-16T08:28:31.694Z,20.84
2017-05-16T08:29:40.866Z,20.84
2017-05-16T08:30:50.140Z,20.88
2017-05-16T08:31:59.106Z,20.88
2017-05-16T08:33:08.071Z,20.89
2017-05-16T08:34:17.089Z,20.87
2017-05-16T08:35:26.055Z,20.97
2017-05-16T08:36:35.315Z,20.99
2017-05-16T08:37:51.299Z,21.07
2017-05-16T08:39:00.271Z,21.14
2017-05-16T08:40:09.447Z,21.16
2017-05-16T08:41:18.416Z,21.16
2017-05-16T08:42:27.787Z,21.16
2017-05-16T08:43:36.749Z,20.91
2017-05-16T08:44:45.803Z,20.89
2017-05-16T08:45:54.760Z,20.99
2017-05-16T08:47:03.858Z,20.89
2017-05-16T08:48:13.135Z,20.88
2017-05-16T08:49:22.346Z,20.88
2017-05-16T08:50:32.663Z,20.89
2017-05-16T08:51:43.859Z,20.87
2017-05-16T08:52:54.631Z,20.74
2017-05-16T08:54:06.383Z,20.7
2017-05-16T08:55:16.377Z,20.7
2017-05-16T08:56:26.551Z,20.74
2017-05-16T08:57:35.600Z,20.84
2017-05-16T08:58:44.570Z,20.77
2017-05-16T08:59:53.837Z,20.74
2017-05-16T09:01:02.800Z,20.73
2017-05-16T09:02:11.770Z,20.76
2017-05-16T09:03:20.734Z,20.77
2017-05-16T09:04:29.703Z,20.79
2017-05-16T09:05:38.971Z,20.76
2017-05-16T09:06:47.935Z,20.58
2017-05-16T09:07:56.914Z,20.58
2017-05-16T09:09:05.882Z,20.43
2017-05-16T09:10:14.849Z,20.54
2017-05-16T09:11:24.082Z,20.48
2017-05-16T09:12:33.368Z,20.39
2017-05-16T09:13:42.336Z,20.31
2017-05-16T09:14:51.301Z,20.31
2017-05-16T09:16:00.275Z,20.31
2017-05-16T09:17:09.559Z,20.33
2017-05-16T09:18:18.524Z,20.26
2017-05-16T09:19:27.494Z,20.28
2017-05-16T09:20:36.586Z,20.31
2017-05-16T09:21:45.928Z,20.29
2017-05-16T09:22:55.138Z,20.33
2017-05-16T09:24:04.110Z,20.31
2017-05-16T09:25:13.157Z,20.28
2017-05-16T09:26:22.175Z,20.33
2017-05-16T09:27:31.145Z,20.31
2017-05-16T09:28:40.413Z,20.36
2017-05-16T09:29:49.382Z,20.32
2017-05-16T09:30:58.438Z,20.31
2017-05-16T09:32:07.490Z,20.31
2017-05-16T09:33:16.538Z,20.31
2017-05-16T09:34:25.864Z,20.24
2017-05-16T09:35:34.917Z,20.26
2017-05-16T09:36:43.883Z,20.32
2017-05-16T09:37:52.941Z,20.31
2017-05-16T09:39:01.935Z,20.32
2017-05-16T09:40:11.383Z,20.28
2017-05-16T09:41:20.438Z,20.36
2017-05-16T09:42:29.402Z,20.29
2017-05-16T09:43:38.468Z,20.32
2017-05-16T09:44:47.958Z,20.24
2017-05-16T09:45:57.254Z,20.31
2017-05-16T09:47:06.905Z,20.33
2017-05-16T09:48:18.535Z,20.31
2017-05-16T09:49:28.279Z,20.32
2017-05-16T09:50:37.288Z,20.2
2017-05-16T09:51:46.678Z,20.17
2017-05-16T09:52:55.728Z,20.11
2017-05-16T09:54:04.689Z,20.16
2017-05-16T09:55:13.657Z,20.05
2017-05-16T09:56:22.791Z,20.05
2017-05-16T09:57:32.054Z,20.01
2017-05-16T09:58:41.019Z,20.08
2017-05-16T09:59:49.988Z,20.03
2017-05-16T10:00:58.960Z,19.99
2017-05-16T10:02:08.057Z,20.08
2017-05-16T10:03:17.276Z,20.11
2017-05-16T10:04:26.326Z,20.02
2017-05-16T10:05:35.296Z,20.03
2017-05-16T10:06:44.258Z,19.98
2017-05-16T10:07:53.231Z,20.01
2017-05-16T10:09:02.504Z,19.88
2017-05-16T10:10:11.791Z,19.83
2017-05-16T10:11:20.764Z,19.78
2017-05-16T10:12:29.727Z,19.76
2017-05-16T10:13:38.782Z,19.76
2017-05-16T10:14:48.046Z,19.71
2017-05-16T10:15:57.006Z,19.73
2017-05-16T10:17:05.973Z,19.74
2017-05-16T10:18:14.936Z,19.78
2017-05-16T10:19:23.985Z,19.63
2017-05-16T10:20:33.535Z,19.69
2017-05-16T10:21:42.499Z,19.76
2017-05-16T10:22:51.467Z,19.76
2017-05-16T10:24:00.430Z,19.77
2017-05-16T10:25:09.986Z,19.73
2017-05-16T10:26:19.412Z,19.78
2017-05-16T10:27:28.385Z,19.77
2017-05-16T10:28:37.834Z,19.76
2017-05-16T10:29:48.737Z,19.68
2017-05-16T10:30:57.728Z,19.68
2017-05-16T10:32:08.618Z,19.77
2017-05-16T10:33:18.005Z,19.66
2017-05-16T10:34:27.021Z,19.59
2017-05-16T10:37:19.504Z,19.66
2017-05-16T10:38:32.579Z,19.59
2017-05-16T10:39:47.216Z,19.71
2017-05-16T10:41:05.584Z,19.71
2017-05-16T10:42:20.794Z,19.68
2017-05-16T10:43:36.745Z,19.65
2017-05-16T10:44:48.112Z,19.65
2017-05-16T10:45:58.124Z,19.65
2017-05-16T10:47:07.209Z,19.54
2017-05-16T10:48:16.488Z,19.47
2017-05-16T10:49:26.295Z,19.51
2017-05-16T10:50:35.978Z,19.5
2017-05-16T10:51:45.392Z,19.47
2017-05-16T10:52:54.359Z,19.37
2017-05-16T10:54:03.641Z,19.41
2017-05-16T10:55:14.486Z,19.29
2017-05-16T10:56:24.236Z,19.25
2017-05-16T10:57:34.825Z,19.23
2017-05-16T10:58:47.994Z,19.19
2017-05-16T11:00:10.182Z,19.31
2017-05-16T11:01:21.553Z,19.29
2017-05-16T11:02:30.990Z,19.26
2017-05-16T11:03:45.560Z,19.21
2017-05-16T11:05:00.724Z,19.11
2017-05-16T11:06:14.939Z,19.14
2017-05-16T11:07:31.412Z,19.19
2017-05-16T11:08:43.769Z,19.21
2017-05-16T11:09:55.065Z,19.21
2017-05-16T11:11:08.133Z,19.23
2017-05-16T11:12:19.384Z,19.14
2017-05-16T11:13:28.356Z,19.13
2017-05-16T11:14:37.317Z,19.06
2017-05-16T11:15:46.583Z,19.08
2017-05-16T11:16:55.548Z,19
2017-05-16T11:18:04.509Z,19
2017-05-16T11:19:13.495Z,19.06
2017-05-16T11:20:22.633Z,19.04
2017-05-16T11:21:31.905Z,19.14
2017-05-16T11:22:40.868Z,19.14
2017-05-16T11:23:49.830Z,19.18
2017-05-16T11:24:58.793Z,19.23
2017-05-16T11:26:07.841Z,19.16
2017-05-16T11:27:17.157Z,19.28
2017-05-16T11:28:26.122Z,19.29
2017-05-16T11:29:35.085Z,19.37
2017-05-16T11:30:44.052Z,19.41
2017-05-16T11:31:53.016Z,19.4
2017-05-16T11:33:02.608Z,19.36
2017-05-16T11:34:11.574Z,19.29
2017-05-16T11:35:20.538Z,19.41
2017-05-16T11:36:29.516Z,19.39
2017-05-16T11:37:38.568Z,19.33
2017-05-16T11:38:48.155Z,19.36
2017-05-16T11:39:57.119Z,19.32
2017-05-16T11:41:06.172Z,19.4
2017-05-16T11:42:15.142Z,19.39
2017-05-16T11:43:24.195Z,19.37
2017-05-16T11:44:33.460Z,19.31
2017-05-16T11:45:42.482Z,19.37
2017-05-16T11:46:51.457Z,19.28
2017-05-16T11:48:00.422Z,19.28
2017-05-16T11:49:09.388Z,19.33
2017-05-16T11:50:18.650Z,19.43
2017-05-16T11:51:27.932Z,19.39
2017-05-16T11:52:36.893Z,19.58
2017-05-16T11:53:45.945Z,19.46
2017-05-16T11:54:54.911Z,19.44
2017-05-16T11:56:04.230Z,19.4
2017-05-16T11:57:13.192Z,19.4
2017-05-16T11:58:22.246Z,19.43
2017-05-16T11:59:31.300Z,19.54
2017-05-16T12:00:40.280Z,19.59
2017-05-16T12:01:49.506Z,19.56
2017-05-16T12:02:58.791Z,19.5
2017-05-16T12:04:08.079Z,19.46
2017-05-16T12:05:17.096Z,19.44
2017-05-16T12:06:26.059Z,19.4
2017-05-16T12:07:35.322Z,19.32
2017-05-16T12:08:44.385Z,19.28
2017-05-16T12:09:53.349Z,19.21
2017-05-16T12:11:02.321Z,19.1
2017-05-16T12:12:11.286Z,19.04
2017-05-16T12:13:20.638Z,19.06
2017-05-16T12:14:29.605Z,19
2017-05-16T12:15:38.660Z,18.99
2017-05-16T12:16:47.619Z,19.07
2017-05-16T12:17:56.583Z,18.99
2017-05-16T12:19:05.928Z,19.06
2017-05-16T12:20:14.895Z,18.9
2017-05-16T12:21:23.946Z,18.82
2017-05-16T12:22:32.908Z,18.87
2017-05-16T12:23:41.874Z,18.76
2017-05-16T12:24:51.138Z,18.81
2017-05-16T12:26:00.190Z,18.81
2017-05-16T12:27:09.158Z,18.87
2017-05-16T12:28:18.124Z,18.73
2017-05-16T12:29:27.093Z,18.85
2017-05-16T12:30:36.446Z,18.78
2017-05-16T12:31:45.410Z,18.81
2017-05-16T12:32:54.466Z,18.78
2017-05-16T12:34:03.515Z,18.8
2017-05-16T12:35:12.570Z,18.8
2017-05-16T12:36:21.879Z,18.82
2017-05-16T12:37:30.937Z,18.92
2017-05-16T12:38:39.897Z,18.84
2017-05-16T12:39:48.899Z,18.85
2017-05-16T12:40:57.921Z,18.8
2017-05-16T12:42:07.180Z,18.88
2017-05-16T12:43:16.139Z,18.73
2017-05-16T12:44:25.112Z,18.66
2017-05-16T12:45:34.399Z,18.58
2017-05-16T12:46:43.446Z,18.66
2017-05-16T12:47:52.789Z,18.66
2017-05-16T12:49:01.759Z,18.52
2017-05-16T12:50:10.985Z,18.45
2017-05-16T12:51:20.085Z,18.47
2017-05-16T12:52:29.048Z,18.36
2017-05-16T12:53:38.411Z,18.39
2017-05-16T12:54:47.376Z,18.14
2017-05-16T12:55:56.341Z,18.17
2017-05-16T12:57:05.720Z,18.11
2017-05-16T12:58:14.732Z,18.11
2017-05-16T12:59:24.001Z,18.2
2017-05-16T13:00:32.996Z,18.11
2017-05-16T13:01:41.964Z,18.14
2017-05-16T13:02:50.920Z,18.21
2017-05-16T13:04:00.017Z,18.21
2017-05-16T13:05:09.695Z,18.17
2017-05-16T13:06:18.658Z,18.11
2017-05-16T13:07:27.732Z,18.05
2017-05-16T13:08:37.053Z,17.99
2017-05-16T13:09:46.015Z,17.95
2017-05-16T13:10:55.223Z,17.97
2017-05-16T13:12:04.185Z,17.9
2017-05-16T13:13:13.146Z,17.99
2017-05-16T13:14:22.168Z,18.03
2017-05-16T13:15:31.147Z,18.02
2017-05-16T13:16:40.496Z,18.05
2017-05-16T13:17:49.465Z,17.96
2017-05-16T13:18:58.429Z,17.9
2017-05-16T13:20:07.398Z,17.81
2017-05-16T13:21:16.387Z,17.77
2017-05-16T13:22:25.658Z,17.89
2017-05-16T13:23:34.628Z,17.81
2017-05-16T13:24:43.706Z,17.82
2017-05-16T13:25:52.671Z,17.82
2017-05-16T13:27:01.631Z,17.74
2017-05-16T13:28:11.177Z,17.77
2017-05-16T13:29:20.229Z,17.64
2017-05-16T13:30:29.522Z,17.72
2017-05-16T13:31:38.488Z,17.74
2017-05-16T13:32:47.452Z,17.78
2017-05-16T13:33:56.725Z,17.84
2017-05-16T13:35:05.690Z,17.86
2017-05-16T13:36:14.653Z,17.89
2017-05-16T13:37:23.613Z,17.75
2017-05-16T13:38:32.672Z,17.75
2017-05-16T13:39:41.938Z,17.74
2017-05-16T13:40:50.895Z,17.71
2017-05-16T13:41:59.863Z,17.75
2017-05-16T13:43:08.832Z,17.79
2017-05-16T13:44:18.352Z,17.71
2017-05-16T13:45:27.685Z,17.75
2017-05-16T13:46:36.683Z,17.72
2017-05-16T13:47:45.738Z,17.82
2017-05-16T13:48:54.810Z,17.89
2017-05-16T13:50:03.775Z,17.99
2017-05-16T13:51:13.126Z,18
2017-05-16T13:52:22.096Z,17.99
2017-05-16T13:53:31.060Z,18.2
2017-05-16T13:54:40.029Z,18.1
2017-05-16T13:55:48.993Z,18.15
2017-05-16T13:56:58.256Z,18.1
2017-05-16T13:58:07.220Z,18.11
2017-05-16T13:59:16.273Z,18.15
2017-05-16T14:00:25.238Z,18.14
2017-05-16T14:01:34.285Z,18.2
2017-05-16T14:02:43.547Z,18.23
2017-05-16T14:03:52.532Z,18.36
2017-05-16T14:05:01.502Z,18.35
2017-05-16T14:06:10.469Z,18.36
2017-05-16T14:07:19.522Z,18.41
2017-05-16T14:08:28.736Z,18.42
2017-05-16T14:09:37.787Z,18.48
2017-05-16T14:10:46.756Z,18.55
2017-05-16T14:11:55.724Z,18.6
2017-05-16T14:13:04.689Z,18.62
2017-05-16T14:14:15.088Z,18.62
2017-05-16T14:15:28.216Z,18.63
2017-05-16T14:16:41.556Z,18.66
2017-05-16T14:17:52.373Z,18.55
2017-05-16T14:19:01.341Z,18.52
2017-05-16T14:20:10.621Z,18.52
2017-05-16T14:21:19.589Z,18.44
2017-05-16T14:22:28.587Z,18.54
2017-05-16T14:23:37.559Z,18.52
2017-05-16T14:24:46.536Z,18.66
2017-05-16T14:25:55.882Z,18.6
2017-05-16T14:27:04.851Z,18.7
2017-05-16T14:28:13.815Z,18.65
2017-05-16T14:29:22.781Z,18.67
2017-05-16T14:30:31.750Z,18.69
2017-05-16T14:31:41.011Z,18.78
2017-05-16T14:32:49.973Z,18.8
2017-05-16T14:33:59.020Z,18.76
2017-05-16T14:35:08.014Z,18.87
2017-05-16T14:36:16.972Z,18.9
2017-05-16T14:37:26.239Z,18.87
2017-05-16T14:38:35.199Z,18.87
2017-05-16T14:39:44.176Z,18.85
2017-05-16T14:40:53.143Z,18.82
2017-05-16T14:42:02.248Z,18.84
2017-05-16T14:43:11.510Z,18.9
2017-05-16T14:44:20.527Z,18.72
2017-05-16T14:45:29.483Z,18.82
2017-05-16T14:46:38.535Z,18.94
2017-05-16T14:47:47.815Z,18.95
2017-05-16T14:48:57.165Z,18.98
2017-05-16T14:50:06.126Z,19
2017-05-16T14:51:15.412Z,18.98
2017-05-16T14:52:24.378Z,18.98
2017-05-16T14:53:33.344Z,18.9
2017-05-16T14:54:42.602Z,19.04
2017-05-16T14:55:51.654Z,18.99
2017-05-16T14:57:01.024Z,18.92
2017-05-16T14:58:09.985Z,18.98
2017-05-16T14:59:18.950Z,18.95